createdAt,value
2023-03-12T00:00:36.522Z,0.00
2023-03-12T00:05:20.353Z,0.00
2023-03-12T00:10:26.386Z,0.00
2023-03-12T00:15:32.557Z,0.00
2023-03-12T00:20:23.077Z,0.00
2023-03-12T00:25:26.679Z,0.00
2023-03-12T00:30:32.630Z,0.00
2023-03-12T00:35:21.985Z,0.00
2023-03-12T00:40:27.997Z,0.00
2023-03-12T00:45:16.872Z,0.00
2023-03-12T00:50:22.781Z,0.00
2023-03-12T00:55:29.060Z,0.00
2023-03-12T01:00:18.805Z,0.00
2023-03-12T01:05:23.369Z,0.00
2023-03-12T01:10:29.689Z,0.00
2023-03-12T01:15:18.720Z,0.00
2023-03-12T01:20:25.417Z,0.00
2023-03-12T01:25:31.111Z,0.00
2023-03-12T01:30:19.968Z,0.00
2023-03-12T01:35:26.067Z,0.00
2023-03-12T01:40:32.386Z,0.00
2023-03-12T01:45:20.962Z,0.00
2023-03-12T01:50:27.280Z,0.00
2023-03-12T01:55:33.146Z,0.00
2023-03-12T02:00:27.014Z,0.00
2023-03-12T02:05:28.108Z,0.00
2023-03-12T02:10:16.964Z,0.00
2023-03-12T02:15:22.719Z,0.00
2023-03-12T02:20:29.047Z,0.00
2023-03-12T02:25:17.355Z,0.00
2023-03-12T02:30:23.337Z,0.00
2023-03-12T02:35:29.603Z,0.00
2023-03-12T02:40:19.366Z,0.00
2023-03-12T02:45:24.745Z,0.00
2023-03-12T02:50:30.786Z,0.00
2023-03-12T02:55:19.826Z,0.00
2023-03-12T03:00:28.820Z,0.00
2023-03-12T03:05:31.911Z,0.00
2023-03-12T03:10:21.092Z,0.00
2023-03-12T03:15:27.247Z,0.00
2023-03-12T03:20:33.073Z,0.00
2023-03-12T03:25:21.560Z,0.00
2023-03-12T03:30:27.886Z,0.00
2023-03-12T03:35:16.883Z,0.00
2023-03-12T03:40:24.550Z,0.00
2023-03-12T03:45:31.127Z,0.00
2023-03-12T03:50:17.948Z,0.00
2023-03-12T03:55:24.069Z,0.00
2023-03-12T04:00:32.825Z,0.00
2023-03-12T04:05:18.941Z,0.00
2023-03-12T04:10:24.442Z,0.00
2023-03-12T04:15:30.525Z,0.00
2023-03-12T04:20:20.547Z,0.00
2023-03-12T04:25:26.376Z,0.00
2023-03-12T04:30:32.329Z,0.00
2023-03-12T04:35:21.199Z,0.00
2023-03-12T04:40:27.571Z,0.00
2023-03-12T04:45:33.526Z,0.00
2023-03-12T04:50:22.486Z,0.00
2023-03-12T04:55:28.488Z,0.00
2023-03-12T05:00:20.009Z,0.00
2023-03-12T05:05:23.184Z,0.00
2023-03-12T05:10:29.298Z,0.00
2023-03-12T05:15:18.104Z,0.00
2023-03-12T05:20:25.626Z,0.00
2023-03-12T05:25:29.744Z,0.00
2023-03-12T05:30:18.635Z,0.02
2023-03-12T05:35:24.562Z,0.65
2023-03-12T05:40:30.933Z,1.55
2023-03-12T05:45:19.933Z,2.97
2023-03-12T05:50:26.024Z,4.53
2023-03-12T05:55:32.046Z,7.62
2023-03-12T06:00:25.094Z,12.68
2023-03-12T06:05:27.509Z,15.37
2023-03-12T06:10:33.499Z,18.71
2023-03-12T06:15:22.322Z,22.53
2023-03-12T06:20:28.457Z,25.35
2023-03-12T06:25:16.892Z,29.06
2023-03-12T06:30:22.972Z,33.83
2023-03-12T06:35:29.206Z,36.67
2023-03-12T06:40:18.896Z,35.52
2023-03-12T06:45:24.007Z,33.60
2023-03-12T06:50:30.142Z,32.78
2023-03-12T06:55:20.076Z,42.96
2023-03-12T07:00:27.804Z,63.35
2023-03-12T07:05:30.456Z,72.70
2023-03-12T07:10:19.338Z,77.69
2023-03-12T07:15:25.556Z,99.41
2023-03-12T07:20:31.714Z,91.48
2023-03-12T07:25:20.901Z,145.65
2023-03-12T07:30:27.241Z,138.18
2023-03-12T07:35:33.488Z,107.75
2023-03-12T07:40:23.533Z,138.89
2023-03-12T07:45:28.490Z,143.94
2023-03-12T07:50:17.305Z,182.05
2023-03-12T07:55:23.482Z,100.08
2023-03-12T08:00:31.802Z,101.55
2023-03-12T08:05:18.377Z,160.79
2023-03-12T08:10:23.955Z,146.97
2023-03-12T08:15:31.472Z,145.31
2023-03-12T08:20:20.794Z,209.02
2023-03-12T08:25:24.632Z,221.16
2023-03-12T08:30:30.854Z,175.43
2023-03-12T08:35:19.780Z,180.67
2023-03-12T08:40:27.173Z,196.14
2023-03-12T08:45:31.898Z,229.86
2023-03-12T08:50:20.751Z,239.32
2023-03-12T08:55:26.966Z,198.10
2023-03-12T09:00:33.091Z,200.33
2023-03-12T09:05:22.316Z,192.43
2023-03-12T09:10:30.880Z,209.71
2023-03-12T09:15:17.308Z,321.11
2023-03-12T09:20:24.824Z,409.52
2023-03-12T09:25:29.025Z,306.23
2023-03-12T09:30:18.036Z,346.10
2023-03-12T09:35:23.920Z,427.48
2023-03-12T09:40:30.309Z,414.47
2023-03-12T09:45:19.171Z,439.57
2023-03-12T09:50:27.081Z,422.14
2023-03-12T09:55:31.218Z,297.27
2023-03-12T10:00:27.767Z,280.39
2023-03-12T10:05:26.938Z,282.16
2023-03-12T10:10:31.656Z,272.64
2023-03-12T10:15:20.924Z,404.28
2023-03-12T10:20:28.047Z,249.98
2023-03-12T10:25:32.516Z,191.14
2023-03-12T10:30:21.387Z,258.13
2023-03-12T10:35:27.652Z,280.18
2023-03-12T10:40:17.995Z,298.67
2023-03-12T10:45:22.546Z,257.98
2023-03-12T10:50:29.015Z,276.13
2023-03-12T10:55:17.923Z,269.65
2023-03-12T11:00:27.800Z,276.78
2023-03-12T11:05:30.835Z,289.11
2023-03-12T11:10:20.062Z,305.72
2023-03-12T11:15:25.724Z,287.49
2023-03-12T11:20:33.479Z,371.47
2023-03-12T11:25:20.367Z,314.13
2023-03-12T11:30:26.841Z,397.70
2023-03-12T11:35:32.958Z,279.26
2023-03-12T11:40:23.118Z,231.46
2023-03-12T11:45:27.750Z,189.48
2023-03-12T11:50:33.828Z,165.38
2023-03-12T11:55:22.799Z,149.96
2023-03-12T12:00:30.765Z,181.50
2023-03-12T12:05:17.381Z,184.43
2023-03-12T12:10:22.766Z,173.79
2023-03-12T12:15:28.854Z,248.29
2023-03-12T12:20:18.170Z,195.25
2023-03-12T12:25:24.029Z,164.53
2023-03-12T12:30:30.117Z,152.07
2023-03-12T12:35:19.206Z,96.23
2023-03-12T12:40:25.428Z,81.24
2023-03-12T12:45:31.284Z,87.18
2023-03-12T12:50:20.137Z,100.15
2023-03-12T12:55:26.427Z,74.49
2023-03-12T13:00:33.321Z,99.63
2023-03-12T13:05:21.052Z,83.50
2023-03-12T13:10:26.993Z,88.72
2023-03-12T13:15:34.048Z,77.37
2023-03-12T13:20:23.672Z,70.42
2023-03-12T13:25:27.530Z,61.19
2023-03-12T13:30:16.653Z,51.62
2023-03-12T13:35:22.465Z,55.69
2023-03-12T13:40:28.843Z,60.51
2023-03-12T13:45:17.779Z,71.98
2023-03-12T13:50:23.770Z,67.89
2023-03-12T13:55:29.764Z,64.11
2023-03-12T14:00:22.280Z,71.02
2023-03-12T14:05:25.713Z,72.44
2023-03-12T14:10:31.410Z,84.14
2023-03-12T14:15:20.293Z,79.88
2023-03-12T14:20:27.901Z,64.26
2023-03-12T14:25:31.853Z,59.15
2023-03-12T14:30:20.979Z,48.99
2023-03-12T14:35:27.132Z,60.55
2023-03-12T14:40:33.254Z,55.21
2023-03-12T14:45:22.005Z,43.52
2023-03-12T14:50:28.261Z,47.06
2023-03-12T14:55:17.395Z,52.49
2023-03-12T15:00:27.152Z,44.52
2023-03-12T15:05:28.740Z,40.87
2023-03-12T15:10:17.821Z,33.29
2023-03-12T15:15:24.127Z,29.90
2023-03-12T15:20:30.075Z,46.91
2023-03-12T15:25:18.834Z,57.59
2023-03-12T15:30:24.874Z,46.38
2023-03-12T15:35:31.015Z,33.97
2023-03-12T15:40:21.154Z,18.84
2023-03-12T15:45:26.070Z,14.75
2023-03-12T15:50:34.000Z,14.18
2023-03-12T15:55:20.883Z,16.72
2023-03-12T16:00:28.552Z,18.67
2023-03-12T16:05:33.486Z,27.31
2023-03-12T16:10:22.509Z,20.19
2023-03-12T16:15:28.585Z,19.38
2023-03-12T16:20:17.470Z,16.13
2023-03-12T16:25:23.108Z,10.28
2023-03-12T16:30:28.973Z,10.45
2023-03-12T16:35:18.031Z,9.19
2023-03-12T16:40:33.315Z,5.08
2023-03-12T16:45:30.151Z,2.88
2023-03-12T16:50:19.114Z,2.17
2023-03-12T16:55:25.271Z,3.18
2023-03-12T17:00:35.645Z,1.96
2023-03-12T17:05:19.930Z,0.06
2023-03-12T17:10:25.985Z,0.23
2023-03-12T17:15:32.124Z,0.02
2023-03-12T17:20:22.531Z,0.00
2023-03-12T17:25:27.415Z,0.00
2023-03-12T17:30:33.436Z,0.00
2023-03-12T17:35:22.471Z,0.00
2023-03-12T17:40:28.588Z,0.00
2023-03-12T17:45:17.547Z,0.00
2023-03-12T17:50:23.636Z,0.00
2023-03-12T17:55:29.585Z,0.00
2023-03-12T18:00:23.324Z,0.00
2023-03-12T18:05:24.406Z,0.00
2023-03-12T18:10:30.173Z,0.00
2023-03-12T18:15:19.157Z,0.00
2023-03-12T18:20:37.761Z,0.00
2023-03-12T18:25:30.826Z,0.00
2023-03-12T18:30:19.878Z,0.00
2023-03-12T18:35:25.941Z,0.00
2023-03-12T18:40:32.337Z,0.00
2023-03-12T18:45:21.218Z,0.00
2023-03-12T18:50:27.496Z,0.00
2023-03-12T18:55:33.418Z,0.00
2023-03-12T19:00:26.809Z,0.00
2023-03-12T19:05:27.913Z,0.00
2023-03-12T19:10:16.818Z,0.00
2023-03-12T19:15:22.906Z,0.00
2023-03-12T19:20:28.820Z,0.00
2023-03-12T19:25:18.101Z,0.00
2023-03-12T19:30:24.071Z,0.00
2023-03-12T19:35:30.356Z,0.00
2023-03-12T19:40:20.563Z,0.00
2023-03-12T19:45:25.347Z,0.00
2023-03-12T19:50:31.319Z,0.00
2023-03-12T19:55:20.311Z,0.00
2023-03-12T20:00:30.162Z,0.00
2023-03-12T20:05:31.966Z,0.00
2023-03-12T20:10:21.584Z,0.00
2023-03-12T20:15:27.049Z,0.00
2023-03-12T20:20:32.963Z,0.00
2023-03-12T20:25:22.418Z,0.00
2023-03-12T20:30:28.486Z,0.00
2023-03-12T20:35:17.494Z,0.00
2023-03-12T20:40:24.658Z,0.00
2023-03-12T20:45:29.673Z,0.00
2023-03-12T20:50:18.470Z,0.00
2023-03-12T20:55:24.743Z,0.00
2023-03-12T21:00:32.633Z,0.00
2023-03-12T21:05:18.930Z,0.00
2023-03-12T21:10:25.383Z,0.00
2023-03-12T21:15:31.262Z,0.00
2023-03-12T21:20:21.472Z,0.00
2023-03-12T21:25:25.769Z,0.00
2023-03-12T21:30:32.007Z,0.00
2023-03-12T21:35:20.840Z,0.00
2023-03-12T21:40:27.301Z,0.00
2023-03-12T21:45:33.191Z,0.00
2023-03-12T21:50:22.047Z,0.00
2023-03-12T21:55:29.738Z,0.00
2023-03-12T22:00:18.489Z,0.00
2023-03-12T22:05:23.183Z,0.00
2023-03-12T22:10:28.833Z,0.00
2023-03-12T22:15:17.774Z,0.00
2023-03-12T22:20:25.363Z,0.00
2023-03-12T22:25:29.539Z,0.00
2023-03-12T22:30:18.548Z,0.00
2023-03-12T22:35:24.647Z,0.00
2023-03-12T22:40:30.805Z,0.00
2023-03-12T22:45:19.705Z,0.00
2023-03-12T22:50:25.620Z,0.00
2023-03-12T22:55:31.889Z,0.00
2023-03-12T23:00:24.886Z,0.00
2023-03-12T23:05:27.573Z,0.00
2023-03-12T23:10:33.548Z,0.00
2023-03-12T23:15:24.537Z,0.00
2023-03-12T23:20:30.310Z,0.00
2023-03-12T23:25:16.939Z,0.00
2023-03-12T23:30:23.074Z,0.00
2023-03-12T23:35:29.276Z,0.00
2023-03-12T23:40:19.455Z,0.00
2023-03-12T23:45:24.355Z,0.00
2023-03-12T23:50:30.389Z,0.00
2023-03-12T23:55:19.396Z,0.00
